sensor_id;sensor_type;location;lat;lon;timestamp;pressure;altitude;pressure_sealevel;temperature;humidity
9439;BME280;5176;42.622;25.386;2022-12-29T00:02:14;98313.34;;;6.31;90.95
9439;BME280;5176;42.622;25.386;2022-12-29T00:04:41;98311.56;;;6.33;90.13
9439;BME280;5176;42.622;25.386;2022-12-29T00:07:10;98303.66;;;6.36;89.82
9439;BME280;5176;42.622;25.386;2022-12-29T00:09:38;98312.44;;;6.32;89.57
9439;BME280;5176;42.622;25.386;2022-12-29T00:12:05;98302.16;;;6.29;89.43
9439;BME280;5176;42.622;25.386;2022-12-29T00:14:32;98309.72;;;6.37;90.18
9439;BME280;5176;42.622;25.386;2022-12-29T00:17:16;98315.00;;;6.34;90.26
9439;BME280;5176;42.622;25.386;2022-12-29T00:19:43;98307.19;;;6.34;91.08
9439;BME280;5176;42.622;25.386;2022-12-29T00:22:29;98308.91;;;6.35;90.62
9439;BME280;5176;42.622;25.386;2022-12-29T00:25:14;98311.56;;;6.33;89.58
9439;BME280;5176;42.622;25.386;2022-12-29T00:27:58;98316.00;;;6.30;89.53
9439;BME280;5176;42.622;25.386;2022-12-29T00:30:43;98317.78;;;6.27;90.28
9439;BME280;5176;42.622;25.386;2022-12-29T00:33:29;98314.50;;;6.22;90.64
9439;BME280;5176;42.622;25.386;2022-12-29T00:36:18;98323.31;;;6.17;90.71
9439;BME280;5176;42.622;25.386;2022-12-29T00:38:51;98326.97;;;6.11;91.92
9439;BME280;5176;42.622;25.386;2022-12-29T00:41:37;98330.34;;;6.13;92.15
9439;BME280;5176;42.622;25.386;2022-12-29T00:44:22;98331.25;;;6.12;91.49
9439;BME280;5176;42.622;25.386;2022-12-29T00:46:49;98333.13;;;6.07;92.50
9439;BME280;5176;42.622;25.386;2022-12-29T00:49:16;98333.13;;;6.07;91.99
9439;BME280;5176;42.622;25.386;2022-12-29T00:51:59;98334.84;;;6.08;91.76
9439;BME280;5176;42.622;25.386;2022-12-29T00:54:29;98335.88;;;6.03;92.57
9439;BME280;5176;42.622;25.386;2022-12-29T00:56:57;98343.66;;;6.04;93.14
9439;BME280;5176;42.622;25.386;2022-12-29T00:59:24;98332.38;;;6.04;93.25
9439;BME280;5176;42.622;25.386;2022-12-29T01:01:52;98338.56;;;5.99;93.61
9439;BME280;5176;42.622;25.386;2022-12-29T01:04:21;98330.69;;;6.01;93.72
9439;BME280;5176;42.622;25.386;2022-12-29T01:06:49;98333.34;;;5.99;93.69
9439;BME280;5176;42.622;25.386;2022-12-29T01:09:17;98335.00;;;6.04;94.47
9439;BME280;5176;42.622;25.386;2022-12-29T01:12:04;98328.09;;;6.01;94.21
9439;BME280;5176;42.622;25.386;2022-12-29T01:14:32;98332.44;;;6.02;94.09
9439;BME280;5176;42.622;25.386;2022-12-29T01:16:59;98328.09;;;6.01;94.08
9439;BME280;5176;42.622;25.386;2022-12-29T01:19:26;98320.28;;;6.03;94.39
9439;BME280;5176;42.622;25.386;2022-12-29T01:21:53;98319.28;;;6.07;93.55
9439;BME280;5176;42.622;25.386;2022-12-29T01:24:21;98321.88;;;6.07;93.62
9439;BME280;5176;42.622;25.386;2022-12-29T01:26:48;98320.06;;;6.10;93.66
9439;BME280;5176;42.622;25.386;2022-12-29T01:29:17;98309.47;;;6.15;93.20
9439;BME280;5176;42.622;25.386;2022-12-29T01:31:44;98300.75;;;6.17;92.95
9439;BME280;5176;42.622;25.386;2022-12-29T01:34:12;98299.03;;;6.16;92.87
9439;BME280;5176;42.622;25.386;2022-12-29T01:36:39;98298.16;;;6.17;92.90
9439;BME280;5176;42.622;25.386;2022-12-29T01:39:06;98296.38;;;6.18;92.61
9439;BME280;5176;42.622;25.386;2022-12-29T01:41:33;98298.03;;;6.20;93.05
9439;BME280;5176;42.622;25.386;2022-12-29T01:44:00;98299.84;;;6.18;92.70
9439;BME280;5176;42.622;25.386;2022-12-29T01:46:31;98296.38;;;6.18;91.95
9439;BME280;5176;42.622;25.386;2022-12-29T01:49:05;98293.06;;;6.13;91.88
9439;BME280;5176;42.622;25.386;2022-12-29T01:51:38;98288.72;;;6.13;91.72
9439;BME280;5176;42.622;25.386;2022-12-29T01:54:09;98288.81;;;6.10;91.92
9439;BME280;5176;42.622;25.386;2022-12-29T01:56:39;98282.88;;;6.05;91.34
9439;BME280;5176;42.622;25.386;2022-12-29T01:59:10;98290.56;;;6.10;91.78
9439;BME280;5176;42.622;25.386;2022-12-29T02:01:40;98287.97;;;6.08;92.20
9439;BME280;5176;42.622;25.386;2022-12-29T02:04:09;98283.50;;;6.13;91.36
9439;BME280;5176;42.622;25.386;2022-12-29T02:06:41;98283.44;;;6.15;91.20
9439;BME280;5176;42.622;25.386;2022-12-29T02:09:12;98273.97;;;6.12;90.62
9439;BME280;5176;42.622;25.386;2022-12-29T02:11:39;98276.72;;;6.08;90.51
9439;BME280;5176;42.622;25.386;2022-12-29T02:14:09;98274.38;;;5.98;91.20
9439;BME280;5176;42.622;25.386;2022-12-29T02:16:51;98274.50;;;5.94;90.73
9439;BME280;5176;42.622;25.386;2022-12-29T02:19:53;98274.56;;;5.92;91.61
9439;BME280;5176;42.622;25.386;2022-12-29T02:22:32;98276.41;;;5.87;91.63
9439;BME280;5176;42.622;25.386;2022-12-29T02:25:35;98269.59;;;5.83;91.61
9439;BME280;5176;42.622;25.386;2022-12-29T02:28:53;98266.34;;;5.75;92.20
9439;BME280;5176;42.622;25.386;2022-12-29T02:31:31;98260.28;;;5.74;92.22
9439;BME280;5176;42.622;25.386;2022-12-29T02:34:09;98257.00;;;5.68;91.84
9439;BME280;5176;42.622;25.386;2022-12-29T02:36:42;98256.97;;;5.69;92.37
9439;BME280;5176;42.622;25.386;2022-12-29T02:39:17;98255.22;;;5.70;92.67
9439;BME280;5176;42.622;25.386;2022-12-29T02:41:56;98257.00;;;5.68;92.57
9439;BME280;5176;42.622;25.386;2022-12-29T02:44:28;98249.25;;;5.66;92.51
9439;BME280;5176;42.622;25.386;2022-12-29T02:47:04;98250.94;;;5.67;92.92
9439;BME280;5176;42.622;25.386;2022-12-29T02:49:39;98245.38;;;5.50;92.58
9439;BME280;5176;42.622;25.386;2022-12-29T02:52:13;98236.84;;;5.45;93.96
9439;BME280;5176;42.622;25.386;2022-12-29T02:54:42;98249.69;;;5.51;93.53
9439;BME280;5176;42.622;25.386;2022-12-29T02:57:11;98245.34;;;5.52;92.58
9439;BME280;5176;42.622;25.386;2022-12-29T02:59:39;98241.19;;;5.44;92.67
9439;BME280;5176;42.622;25.386;2022-12-29T03:02:18;98230.69;;;5.47;93.02
9439;BME280;5176;42.622;25.386;2022-12-29T03:05:01;98222.94;;;5.46;91.87
9439;BME280;5176;42.622;25.386;2022-12-29T03:07:36;98226.59;;;5.39;92.95
9439;BME280;5176;42.622;25.386;2022-12-29T03:10:19;98229.31;;;5.36;92.63
9439;BME280;5176;42.622;25.386;2022-12-29T03:12:56;98225.03;;;5.33;93.52
9439;BME280;5176;42.622;25.386;2022-12-29T03:15:51;98227.66;;;5.32;93.69
9439;BME280;5176;42.622;25.386;2022-12-29T03:18:37;98227.75;;;5.29;93.67
9439;BME280;5176;42.622;25.386;2022-12-29T03:21:09;98235.63;;;5.26;93.80
9439;BME280;5176;42.622;25.386;2022-12-29T03:23:39;98228.81;;;5.22;93.72
9439;BME280;5176;42.622;25.386;2022-12-29T03:26:10;98234.88;;;5.20;94.03
9439;BME280;5176;42.622;25.386;2022-12-29T03:28:41;98230.78;;;5.12;94.01
9439;BME280;5176;42.622;25.386;2022-12-29T03:31:12;98233.34;;;5.13;94.28
9439;BME280;5176;42.622;25.386;2022-12-29T03:33:42;98236.94;;;5.09;93.90
9439;BME280;5176;42.622;25.386;2022-12-29T03:36:16;98234.34;;;5.09;94.73
9439;BME280;5176;42.622;25.386;2022-12-29T03:38:47;98230.00;;;5.10;94.96
9439;BME280;5176;42.622;25.386;2022-12-29T03:41:19;98232.66;;;5.07;95.41
9439;BME280;5176;42.622;25.386;2022-12-29T03:43:47;98232.78;;;5.02;95.87
9439;BME280;5176;42.622;25.386;2022-12-29T03:46:14;98232.78;;;5.02;96.59
9439;BME280;5176;42.622;25.386;2022-12-29T03:48:43;98231.06;;;5.01;96.28
9439;BME280;5176;42.622;25.386;2022-12-29T03:51:10;98238.91;;;5.00;95.94
9439;BME280;5176;42.622;25.386;2022-12-29T03:53:37;98241.56;;;4.98;95.98
9439;BME280;5176;42.622;25.386;2022-12-29T03:56:04;98246.00;;;4.93;95.50
9439;BME280;5176;42.622;25.386;2022-12-29T03:58:31;98242.56;;;4.92;96.03
9439;BME280;5176;42.622;25.386;2022-12-29T04:00:58;98242.66;;;4.88;96.45
9439;BME280;5176;42.622;25.386;2022-12-29T04:03:25;98237.56;;;4.85;96.59
9439;BME280;5176;42.622;25.386;2022-12-29T04:05:54;98241.09;;;4.81;96.92
9439;BME280;5176;42.622;25.386;2022-12-29T04:08:21;98245.44;;;4.82;96.83
9439;BME280;5176;42.622;25.386;2022-12-29T04:10:48;98241.03;;;4.84;96.28
9439;BME280;5176;42.622;25.386;2022-12-29T04:13:15;98243.66;;;4.84;95.18
9439;BME280;5176;42.622;25.386;2022-12-29T04:15:43;98245.59;;;4.76;94.17
9439;BME280;5176;42.622;25.386;2022-12-29T04:18:10;98241.59;;;4.61;93.66
9439;BME280;5176;42.622;25.386;2022-12-29T04:20:38;98242.03;;;4.43;93.32
9439;BME280;5176;42.622;25.386;2022-12-29T04:23:24;98235.59;;;4.22;94.84
9439;BME280;5176;42.622;25.386;2022-12-29T04:25:51;98235.75;;;4.16;96.27
9439;BME280;5176;42.622;25.386;2022-12-29T04:28:18;98236.47;;;4.21;96.99
9439;BME280;5176;42.622;25.386;2022-12-29T04:30:45;98237.22;;;4.26;96.96
9439;BME280;5176;42.622;25.386;2022-12-29T04:33:13;98232.03;;;4.26;96.85
9439;BME280;5176;42.622;25.386;2022-12-29T04:35:41;98238.78;;;4.33;96.16
9439;BME280;5176;42.622;25.386;2022-12-29T04:38:08;98249.25;;;4.30;95.82
9439;BME280;5176;42.622;25.386;2022-12-29T04:40:37;98245.81;;;4.29;95.33
9439;BME280;5176;42.622;25.386;2022-12-29T04:43:05;98245.09;;;4.21;94.74
9439;BME280;5176;42.622;25.386;2022-12-29T04:45:32;98249.44;;;4.22;95.02
9439;BME280;5176;42.622;25.386;2022-12-29T04:47:59;98241.66;;;4.21;95.52
9439;BME280;5176;42.622;25.386;2022-12-29T04:50:26;98245.91;;;4.25;95.08
9439;BME280;5176;42.622;25.386;2022-12-29T04:52:53;98244.13;;;4.27;94.32
9439;BME280;5176;42.622;25.386;2022-12-29T04:55:20;98246.81;;;4.24;94.46
9439;BME280;5176;42.622;25.386;2022-12-29T04:57:49;98249.44;;;4.21;95.03
9439;BME280;5176;42.622;25.386;2022-12-29T05:00:17;98250.34;;;4.20;95.31
9439;BME280;5176;42.622;25.386;2022-12-29T05:02:44;98250.31;;;4.21;95.45
9439;BME280;5176;42.622;25.386;2022-12-29T05:05:11;98247.81;;;4.17;95.85
9439;BME280;5176;42.622;25.386;2022-12-29T05:07:38;98258.22;;;4.17;96.43
9439;BME280;5176;42.622;25.386;2022-12-29T05:10:06;98253.91;;;4.16;96.93
9439;BME280;5176;42.622;25.386;2022-12-29T05:12:35;98256.75;;;4.03;96.92
9439;BME280;5176;42.622;25.386;2022-12-29T05:15:05;98263.13;;;3.89;96.96
9439;BME280;5176;42.622;25.386;2022-12-29T05:20:43;98260.84;;;3.75;97.02
9439;BME280;5176;42.622;25.386;2022-12-29T05:23:10;98263.28;;;3.81;96.72
9439;BME280;5176;42.622;25.386;2022-12-29T05:25:37;98259.91;;;3.77;95.25
9439;BME280;5176;42.622;25.386;2022-12-29T05:28:04;98251.72;;;3.55;95.16
9439;BME280;5176;42.622;25.386;2022-12-29T05:30:33;98265.47;;;3.58;95.44
9439;BME280;5176;42.622;25.386;2022-12-29T05:33:00;98269.84;;;3.54;96.25
9439;BME280;5176;42.622;25.386;2022-12-29T05:35:27;98270.00;;;3.48;97.74
9439;BME280;5176;42.622;25.386;2022-12-29T05:37:55;98273.59;;;3.39;98.87
9439;BME280;5176;42.622;25.386;2022-12-29T05:40:25;98271.34;;;3.21;99.35
9439;BME280;5176;42.622;25.386;2022-12-29T05:42:52;98270.56;;;3.17;100.00
9439;BME280;5176;42.622;25.386;2022-12-29T05:45:19;98273.06;;;3.22;100.00
9439;BME280;5176;42.622;25.386;2022-12-29T05:47:48;98270.31;;;3.31;100.00
9439;BME280;5176;42.622;25.386;2022-12-29T05:50:15;98271.09;;;3.36;100.00
9439;BME280;5176;42.622;25.386;2022-12-29T05:52:45;98265.69;;;3.47;100.00
9439;BME280;5176;42.622;25.386;2022-12-29T05:55:13;98269.84;;;3.54;100.00
9439;BME280;5176;42.622;25.386;2022-12-29T05:57:40;98267.16;;;3.60;99.77
9439;BME280;5176;42.622;25.386;2022-12-29T06:00:08;98274.19;;;3.55;100.00
9439;BME280;5176;42.622;25.386;2022-12-29T06:02:36;98280.13;;;3.60;99.89
9439;BME280;5176;42.622;25.386;2022-12-29T06:05:05;98279.09;;;3.67;99.66
9439;BME280;5176;42.622;25.386;2022-12-29T06:07:32;98278.28;;;3.65;98.76
9439;BME280;5176;42.622;25.386;2022-12-29T06:09:59;98280.03;;;3.65;98.76
9439;BME280;5176;42.622;25.386;2022-12-29T06:12:27;98269.53;;;3.71;99.06
9439;BME280;5176;42.622;25.386;2022-12-29T06:14:54;98279.09;;;3.69;98.45
9439;BME280;5176;42.622;25.386;2022-12-29T06:17:21;98279.91;;;3.71;96.92
9439;BME280;5176;42.622;25.386;2022-12-29T06:19:48;98277.38;;;3.68;97.50
9439;BME280;5176;42.622;25.386;2022-12-29T06:22:17;98271.19;;;3.75;97.72
9439;BME280;5176;42.622;25.386;2022-12-29T06:24:44;98272.78;;;3.82;97.20
9439;BME280;5176;42.622;25.386;2022-12-29T06:27:12;98276.16;;;3.86;97.01
9439;BME280;5176;42.622;25.386;2022-12-29T06:29:39;98277.69;;;3.94;96.92
9439;BME280;5176;42.622;25.386;2022-12-29T06:32:06;98286.16;;;4.04;96.66
9439;BME280;5176;42.622;25.386;2022-12-29T06:34:34;98282.59;;;4.09;95.79
9439;BME280;5176;42.622;25.386;2022-12-29T06:37:01;98280.72;;;4.16;95.57
9439;BME280;5176;42.622;25.386;2022-12-29T06:39:29;98279.66;;;4.25;94.60
9439;BME280;5176;42.622;25.386;2022-12-29T06:41:57;98282.03;;;4.34;93.25
9439;BME280;5176;42.622;25.386;2022-12-29T06:44:24;98277.56;;;4.41;94.61
9439;BME280;5176;42.622;25.386;2022-12-29T06:46:52;98278.13;;;4.53;94.53
9439;BME280;5176;42.622;25.386;2022-12-29T06:49:19;98280.44;;;4.65;93.62
9439;BME280;5176;42.622;25.386;2022-12-29T06:51:46;98278.59;;;4.71;91.86
9439;BME280;5176;42.622;25.386;2022-12-29T06:54:13;98278.28;;;4.84;91.57
9439;BME280;5176;42.622;25.386;2022-12-29T06:56:42;98283.38;;;4.87;90.56
9439;BME280;5176;42.622;25.386;2022-12-29T06:59:10;98283.19;;;4.97;89.96
9439;BME280;5176;42.622;25.386;2022-12-29T07:01:37;98276.06;;;5.03;88.70
9439;BME280;5176;42.622;25.386;2022-12-29T07:04:04;98279.44;;;5.08;88.60
9439;BME280;5176;42.622;25.386;2022-12-29T07:06:32;98280.13;;;5.15;88.76
9439;BME280;5176;42.622;25.386;2022-12-29T07:08:59;98273.94;;;5.19;88.10
9439;BME280;5176;42.622;25.386;2022-12-29T07:11:26;98280.63;;;5.28;89.06
9439;BME280;5176;42.622;25.386;2022-12-29T07:13:55;98287.91;;;5.47;87.63
9439;BME280;5176;42.622;25.386;2022-12-29T07:16:22;98290.06;;;5.64;86.01
9439;BME280;5176;42.622;25.386;2022-12-29T07:18:49;98298.34;;;5.79;84.35
9439;BME280;5176;42.622;25.386;2022-12-29T07:21:17;98289.47;;;5.86;84.94
9439;BME280;5176;42.622;25.386;2022-12-29T07:23:44;98290.22;;;5.91;84.31
9439;BME280;5176;42.622;25.386;2022-12-29T07:26:13;98300.03;;;6.12;84.42
9439;BME280;5176;42.622;25.386;2022-12-29T07:28:40;98291.81;;;6.26;83.36
9439;BME280;5176;42.622;25.386;2022-12-29T07:31:14;98304.34;;;6.43;81.85
9439;BME280;5176;42.622;25.386;2022-12-29T07:33:42;98306.59;;;6.53;81.55
9439;BME280;5176;42.622;25.386;2022-12-29T07:36:10;98306.50;;;6.57;82.54
9439;BME280;5176;42.622;25.386;2022-12-29T07:38:37;98294.41;;;6.55;82.48
9439;BME280;5176;42.622;25.386;2022-12-29T07:41:05;98301.38;;;6.53;83.21
9439;BME280;5176;42.622;25.386;2022-12-29T07:43:32;98300.06;;;6.68;83.18
9439;BME280;5176;42.622;25.386;2022-12-29T07:45:59;98305.13;;;6.73;83.53
9439;BME280;5176;42.622;25.386;2022-12-29T07:48:28;98301.28;;;6.85;84.04
9439;BME280;5176;42.622;25.386;2022-12-29T07:50:55;98309.75;;;6.91;83.87
9439;BME280;5176;42.622;25.386;2022-12-29T07:53:22;98300.53;;;7.07;83.66
9439;BME280;5176;42.622;25.386;2022-12-29T07:55:49;98302.44;;;7.29;82.58
9439;BME280;5176;42.622;25.386;2022-12-29T07:58:17;98315.19;;;7.63;80.31
9439;BME280;5176;42.622;25.386;2022-12-29T08:00:44;98299.06;;;7.75;79.02
9439;BME280;5176;42.622;25.386;2022-12-29T08:03:11;98295.13;;;7.88;78.50
9439;BME280;5176;42.622;25.386;2022-12-29T08:05:40;98307.72;;;8.01;77.61
9439;BME280;5176;42.622;25.386;2022-12-29T08:08:07;98305.88;;;8.04;76.88
9439;BME280;5176;42.622;25.386;2022-12-29T08:10:34;98303.97;;;8.08;76.71
9439;BME280;5176;42.622;25.386;2022-12-29T08:13:01;98299.97;;;8.23;75.85
9439;BME280;5176;42.622;25.386;2022-12-29T08:15:29;98314.00;;;8.20;75.42
9439;BME280;5176;42.622;25.386;2022-12-29T08:17:56;98306.41;;;8.37;74.63
9439;BME280;5176;42.622;25.386;2022-12-29T08:20:23;98307.66;;;8.51;74.38
9439;BME280;5176;42.622;25.386;2022-12-29T08:22:52;98304.84;;;8.55;74.84
9439;BME280;5176;42.622;25.386;2022-12-29T08:25:19;98300.88;;;8.89;73.23
9439;BME280;5176;42.622;25.386;2022-12-29T08:27:46;98305.91;;;9.15;71.40
9439;BME280;5176;42.622;25.386;2022-12-29T08:30:13;98293.84;;;9.33;70.16
9439;BME280;5176;42.622;25.386;2022-12-29T08:32:41;98295.44;;;9.37;69.95
9439;BME280;5176;42.622;25.386;2022-12-29T08:35:09;98294.59;;;9.37;69.49
9439;BME280;5176;42.622;25.386;2022-12-29T08:37:36;98295.56;;;9.54;68.40
9439;BME280;5176;42.622;25.386;2022-12-29T08:40:06;98296.53;;;9.72;67.68
9439;BME280;5176;42.622;25.386;2022-12-29T08:42:33;98291.47;;;9.88;67.01
9439;BME280;5176;42.622;25.386;2022-12-29T08:45:01;98287.09;;;10.07;66.84
9439;BME280;5176;42.622;25.386;2022-12-29T08:47:28;98285.41;;;10.06;66.02
9439;BME280;5176;42.622;25.386;2022-12-29T08:49:55;98292.16;;;10.12;66.06
9439;BME280;5176;42.622;25.386;2022-12-29T08:52:22;98292.97;;;10.33;65.23
9439;BME280;5176;42.622;25.386;2022-12-29T08:54:49;98281.41;;;10.56;64.61
9439;BME280;5176;42.622;25.386;2022-12-29T08:57:18;98280.06;;;10.66;63.51
9439;BME280;5176;42.622;25.386;2022-12-29T08:59:45;98280.03;;;10.85;63.90
9439;BME280;5176;42.622;25.386;2022-12-29T09:02:12;98276.09;;;10.94;63.12
9439;BME280;5176;42.622;25.386;2022-12-29T09:04:39;98274.28;;;11.13;62.14
9439;BME280;5176;42.622;25.386;2022-12-29T09:07:07;98262.38;;;11.23;61.03
9439;BME280;5176;42.622;25.386;2022-12-29T09:09:34;98251.97;;;11.39;61.13
9439;BME280;5176;42.622;25.386;2022-12-29T09:12:01;98257.75;;;11.45;59.82
9439;BME280;5176;42.622;25.386;2022-12-29T09:14:30;98238.66;;;11.59;60.45
9439;BME280;5176;42.622;25.386;2022-12-29T09:16:57;98247.59;;;11.72;59.42
9439;BME280;5176;42.622;25.386;2022-12-29T09:19:41;98245.66;;;11.76;59.09
9439;BME280;5176;42.622;25.386;2022-12-29T09:22:09;98244.38;;;12.00;58.22
9439;BME280;5176;42.622;25.386;2022-12-29T09:24:36;98246.13;;;12.17;57.88
9439;BME280;5176;42.622;25.386;2022-12-29T09:27:03;98238.84;;;12.38;57.15
9439;BME280;5176;42.622;25.386;2022-12-29T09:29:32;98232.91;;;12.50;55.91
9439;BME280;5176;42.622;25.386;2022-12-29T09:31:59;98230.59;;;12.60;55.26
9439;BME280;5176;42.622;25.386;2022-12-29T09:34:26;98225.50;;;12.57;54.90
9439;BME280;5176;42.622;25.386;2022-12-29T09:36:53;98229.13;;;12.70;55.22
9439;BME280;5176;42.622;25.386;2022-12-29T09:39:21;98229.81;;;12.74;54.76
9439;BME280;5176;42.622;25.386;2022-12-29T09:41:52;98225.75;;;12.84;54.16
9439;BME280;5176;42.622;25.386;2022-12-29T09:44:35;98214.78;;;12.92;54.30
9439;BME280;5176;42.622;25.386;2022-12-29T09:47:11;98221.97;;;13.04;52.19
9439;BME280;5176;42.622;25.386;2022-12-29T09:49:43;98210.88;;;13.13;52.24
9439;BME280;5176;42.622;25.386;2022-12-29T09:52:14;98206.28;;;13.17;50.97
9439;BME280;5176;42.622;25.386;2022-12-29T09:54:49;98202.72;;;13.18;52.01
9439;BME280;5176;42.622;25.386;2022-12-29T09:57:24;98206.81;;;13.07;52.63
9439;BME280;5176;42.622;25.386;2022-12-29T09:59:56;98201.63;;;13.22;51.86
9439;BME280;5176;42.622;25.386;2022-12-29T10:02:34;98190.06;;;13.24;51.32
9439;BME280;5176;42.622;25.386;2022-12-29T10:05:04;98187.00;;;13.16;51.37
9439;BME280;5176;42.622;25.386;2022-12-29T10:07:45;98185.72;;;13.23;51.74
9439;BME280;5176;42.622;25.386;2022-12-29T10:10:23;98182.00;;;13.42;51.80
9439;BME280;5176;42.622;25.386;2022-12-29T10:13:01;98184.94;;;13.51;50.84
9439;BME280;5176;42.622;25.386;2022-12-29T10:15:52;98182.25;;;13.23;50.31
9439;BME280;5176;42.622;25.386;2022-12-29T10:18:44;98183.50;;;13.16;50.88
9439;BME280;5176;42.622;25.386;2022-12-29T10:21:25;98169.75;;;13.26;51.03
9439;BME280;5176;42.622;25.386;2022-12-29T10:23:56;98175.50;;;13.33;51.31
9439;BME280;5176;42.622;25.386;2022-12-29T10:26:27;98177.78;;;13.53;50.03
9439;BME280;5176;42.622;25.386;2022-12-29T10:28:58;98175.88;;;13.70;50.14
9439;BME280;5176;42.622;25.386;2022-12-29T10:31:35;98174.50;;;13.78;49.43
9439;BME280;5176;42.622;25.386;2022-12-29T10:34:13;98175.13;;;13.82;49.96
9439;BME280;5176;42.622;25.386;2022-12-29T10:36:44;98170.22;;;13.90;47.97
9439;BME280;5176;42.622;25.386;2022-12-29T10:39:18;98163.84;;;13.80;48.96
9439;BME280;5176;42.622;25.386;2022-12-29T10:41:50;98163.75;;;13.81;48.42
9439;BME280;5176;42.622;25.386;2022-12-29T10:44:20;98158.66;;;13.93;48.44
9439;BME280;5176;42.622;25.386;2022-12-29T10:46:54;98157.63;;;13.81;48.58
9439;BME280;5176;42.622;25.386;2022-12-29T10:49:24;98160.75;;;13.73;47.52
9439;BME280;5176;42.622;25.386;2022-12-29T10:51:55;98158.66;;;13.93;48.19
9439;BME280;5176;42.622;25.386;2022-12-29T10:54:27;98149.44;;;14.00;48.41
9439;BME280;5176;42.622;25.386;2022-12-29T10:57:01;98149.69;;;14.09;48.26
9439;BME280;5176;42.622;25.386;2022-12-29T10:59:31;98137.94;;;14.01;47.19
9439;BME280;5176;42.622;25.386;2022-12-29T11:02:19;98128.31;;;14.14;47.94
9439;BME280;5176;42.622;25.386;2022-12-29T11:04:55;98122.72;;;13.92;47.58
9439;BME280;5176;42.622;25.386;2022-12-29T11:07:24;98124.84;;;13.99;47.21
9439;BME280;5176;42.622;25.386;2022-12-29T11:09:52;98124.25;;;14.08;47.51
9439;BME280;5176;42.622;25.386;2022-12-29T11:12:22;98117.25;;;14.22;47.71
9439;BME280;5176;42.622;25.386;2022-12-29T11:15:05;98118.38;;;14.17;47.16
9439;BME280;5176;42.622;25.386;2022-12-29T11:17:45;98124.03;;;14.26;47.57
9439;BME280;5176;42.622;25.386;2022-12-29T11:20:36;98108.22;;;14.26;47.70
9439;BME280;5176;42.622;25.386;2022-12-29T11:23:21;98113.31;;;14.41;47.01
9439;BME280;5176;42.622;25.386;2022-12-29T11:26:06;98116.47;;;14.34;47.12
9439;BME280;5176;42.622;25.386;2022-12-29T11:28:34;98114.06;;;14.43;46.43
9439;BME280;5176;42.622;25.386;2022-12-29T11:31:02;98107.88;;;14.30;47.04
9439;BME280;5176;42.622;25.386;2022-12-29T11:33:32;98112.63;;;13.98;47.64
9439;BME280;5176;42.622;25.386;2022-12-29T11:36:02;98108.19;;;13.99;47.28
9439;BME280;5176;42.622;25.386;2022-12-29T11:38:36;98106.19;;;14.02;47.55
9439;BME280;5176;42.622;25.386;2022-12-29T11:41:09;98108.38;;;13.96;47.96
9439;BME280;5176;42.622;25.386;2022-12-29T11:43:39;98100.75;;;14.05;47.71
9439;BME280;5176;42.622;25.386;2022-12-29T11:46:14;98098.56;;;14.12;47.29
9439;BME280;5176;42.622;25.386;2022-12-29T11:48:46;98098.69;;;13.96;47.76
9439;BME280;5176;42.622;25.386;2022-12-29T11:51:21;98091.16;;;14.04;47.63
9439;BME280;5176;42.622;25.386;2022-12-29T11:53:52;98096.69;;;14.00;47.74
9439;BME280;5176;42.622;25.386;2022-12-29T11:56:30;98092.34;;;13.72;48.40
9439;BME280;5176;42.622;25.386;2022-12-29T11:58:58;98094.38;;;13.81;48.48
9439;BME280;5176;42.622;25.386;2022-12-29T12:01:46;98085.81;;;13.92;49.24
9439;BME280;5176;42.622;25.386;2022-12-29T12:04:17;98077.97;;;14.04;48.90
9439;BME280;5176;42.622;25.386;2022-12-29T12:06:48;98067.41;;;14.04;48.10
9439;BME280;5176;42.622;25.386;2022-12-29T12:09:24;98081.78;;;14.13;47.96
9439;BME280;5176;42.622;25.386;2022-12-29T12:11:54;98087.00;;;14.27;48.11
9439;BME280;5176;42.622;25.386;2022-12-29T12:14:27;98074.41;;;14.45;48.55
9439;BME280;5176;42.622;25.386;2022-12-29T12:16:59;98069.19;;;14.58;47.57
9439;BME280;5176;42.622;25.386;2022-12-29T12:19:33;98063.69;;;14.61;47.95
9439;BME280;5176;42.622;25.386;2022-12-29T12:22:10;98064.03;;;14.69;48.02
9439;BME280;5176;42.622;25.386;2022-12-29T12:24:44;98054.66;;;14.65;47.69
9439;BME280;5176;42.622;25.386;2022-12-29T12:27:18;98060.13;;;14.75;47.50
9439;BME280;5176;42.622;25.386;2022-12-29T12:29:52;98057.59;;;14.73;47.11
9439;BME280;5176;42.622;25.386;2022-12-29T12:32:27;98052.88;;;14.78;46.90
9439;BME280;5176;42.622;25.386;2022-12-29T12:34:59;98052.84;;;14.65;46.46
9439;BME280;5176;42.622;25.386;2022-12-29T12:37:50;98050.41;;;14.75;47.02
9439;BME280;5176;42.622;25.386;2022-12-29T12:40:41;98044.25;;;14.49;47.08
9439;BME280;5176;42.622;25.386;2022-12-29T12:43:28;98047.19;;;14.44;47.30
9439;BME280;5176;42.622;25.386;2022-12-29T12:46:10;98056.13;;;14.42;47.13
9439;BME280;5176;42.622;25.386;2022-12-29T12:48:57;98041.50;;;14.51;47.56
9439;BME280;5176;42.622;25.386;2022-12-29T12:51:35;98054.06;;;14.47;47.33
9439;BME280;5176;42.622;25.386;2022-12-29T12:54:18;98050.13;;;14.40;47.11
9439;BME280;5176;42.622;25.386;2022-12-29T12:56:57;98052.59;;;14.56;46.73
9439;BME280;5176;42.622;25.386;2022-12-29T12:59:42;98058.31;;;14.35;47.10
9439;BME280;5176;42.622;25.386;2022-12-29T13:02:29;98057.09;;;14.41;47.45
9439;BME280;5176;42.622;25.386;2022-12-29T13:05:14;98060.00;;;14.36;47.64
9439;BME280;5176;42.622;25.386;2022-12-29T13:07:54;98061.81;;;14.36;47.38
9439;BME280;5176;42.622;25.386;2022-12-29T13:10:36;98055.09;;;14.17;48.00
9439;BME280;5176;42.622;25.386;2022-12-29T13:13:30;98056.09;;;14.29;47.61
9439;BME280;5176;42.622;25.386;2022-12-29T13:16:06;98063.19;;;14.41;47.64
9439;BME280;5176;42.622;25.386;2022-12-29T13:18:46;98060.97;;;14.35;47.20
9439;BME280;5176;42.622;25.386;2022-12-29T13:21:23;98058.16;;;14.38;47.52
9439;BME280;5176;42.622;25.386;2022-12-29T13:24:00;98059.19;;;14.36;47.74
9439;BME280;5176;42.622;25.386;2022-12-29T13:26:32;98057.25;;;14.25;47.67
9439;BME280;5176;42.622;25.386;2022-12-29T13:29:15;98058.94;;;14.26;48.07
9439;BME280;5176;42.622;25.386;2022-12-29T13:31:50;98066.91;;;14.39;48.06
9439;BME280;5176;42.622;25.386;2022-12-29T13:34:27;98062.31;;;14.55;48.01
9439;BME280;5176;42.622;25.386;2022-12-29T13:37:00;98065.69;;;14.57;48.17
9439;BME280;5176;42.622;25.386;2022-12-29T13:39:33;98065.09;;;14.66;48.55
9439;BME280;5176;42.622;25.386;2022-12-29T13:42:03;98062.22;;;14.69;48.20
9439;BME280;5176;42.622;25.386;2022-12-29T13:44:34;98069.50;;;14.53;47.80
9439;BME280;5176;42.622;25.386;2022-12-29T13:47:06;98060.53;;;14.56;48.22